Time;durP1;ratioP1;P1;durP2;ratioP2;P2;SDS_P1;SDS_P2;PMS_P1;PMS_P2;Temp;Humidity;BMP_temperature;BMP_pressure;BME280_temperature;BME280_humidity;BME280_pressure;Samples;Min_cycle;Max_cycle;Signal;HPM_P1;HPM_P2
2023/08/22 00:02:21;;;;;;;5.83;3.10;;;14.20;99.90;13.50;100904;;;;572904;247;24067;-81
2023/08/22 00:04:49;;;;;;;3.20;2.97;;;14.20;99.90;13.50;100892;;;;572735;247;24099;-81
2023/08/22 00:07:17;;;;;;;13.93;3.70;;;14.10;99.90;13.50;100895;;;;572687;245;24122;-79
2023/08/22 00:09:45;;;;;;;5.83;3.90;;;14.10;99.90;13.50;100899;;;;572865;245;24087;-80
2023/08/22 00:12:13;;;;;;;4.70;3.40;;;14.10;99.90;13.40;100901;;;;573421;246;24049;-79
2023/08/22 00:14:41;;;;;;;6.37;3.27;;;14.10;99.90;13.40;100903;;;;572808;247;24108;-79
2023/08/22 00:17:10;;;;;;;10.23;4.10;;;14.10;99.90;13.40;100895;;;;572727;247;24055;-80
2023/08/22 00:19:38;;;;;;;6.50;2.93;;;14.10;99.90;13.40;100893;;;;572503;247;24041;-79
2023/08/22 00:22:05;;;;;;;13.97;3.50;;;14.10;99.90;13.50;100888;;;;572274;247;24053;-81
2023/08/22 00:24:33;;;;;;;7.60;3.63;;;14.10;99.90;13.50;100888;;;;572711;246;24057;-81
2023/08/22 00:27:01;;;;;;;8.63;3.87;;;14.10;99.90;13.50;100883;;;;572827;247;24060;-80
2023/08/22 00:29:29;;;;;;;4.47;3.17;;;14.10;99.90;13.40;100887;;;;573164;247;24049;-80
2023/08/22 00:31:58;;;;;;;10.32;5.35;;;14.10;99.90;13.40;100881;;;;568542;245;35008;-80
2023/08/22 00:34:27;;;;;;;5.97;4.13;;;14.10;99.90;13.40;100885;;;;582836;245;24076;-80
2023/08/22 00:36:55;;;;;;;8.37;3.50;;;14.10;99.90;13.40;100886;;;;573739;246;24140;-79
2023/08/22 00:39:24;;;;;;;4.23;3.37;;;14.10;99.90;13.40;100886;;;;573686;244;25082;-79
2023/08/22 00:41:50;;;;;;;6.57;3.67;;;14.10;99.90;13.40;100895;;;;573413;246;24039;-79
2023/08/22 00:44:21;;;;;;;6.13;3.43;;;14.10;99.90;13.40;100892;;;;573693;245;24033;-80
2023/08/22 00:46:46;;;;;;;10.90;3.63;;;14.00;99.90;13.40;100896;;;;563157;247;24071;-82
2023/08/22 00:49:14;;;;;;;8.80;3.47;;;14.00;99.90;13.40;100892;;;;581998;245;24064;-80
2023/08/22 00:51:42;;;;;;;11.37;3.83;;;14.00;99.90;13.30;100892;;;;562609;251;24091;-80
2023/08/22 00:54:14;;;;;;;12.40;3.57;;;13.90;99.90;13.30;100890;;;;581803;240;24028;-79
2023/08/22 00:56:42;;;;;;;8.37;3.53;;;13.90;99.90;13.30;100887;;;;562772;248;24122;-80
2023/08/22 00:59:13;;;;;;;6.90;3.33;;;13.90;99.90;13.30;100899;;;;571098;247;24107;-79
2023/08/22 01:01:37;;;;;;;10.17;3.83;;;13.90;99.90;13.30;100889;;;;573423;247;24056;-80
2023/08/22 01:04:05;;;;;;;5.27;3.33;;;13.90;99.90;13.30;100892;;;;581762;246;24026;-80
2023/08/22 01:06:51;;;;;;;7.77;2.97;;;13.90;99.90;13.30;100903;;;;562445;251;24075;-79
2023/08/22 01:09:52;;;;;;;4.53;3.43;;;13.90;99.90;13.30;100897;;;;571205;250;24088;-80
2023/08/22 01:12:41;;;;;;;11.67;3.77;;;14.00;99.90;13.30;100897;;;;572850;247;24102;-80
2023/08/22 01:15:24;;;;;;;5.97;3.57;;;14.00;99.90;13.30;100897;;;;570865;251;24066;-80
2023/08/22 01:17:54;;;;;;;9.17;3.60;;;14.00;99.90;13.30;100898;;;;580228;247;24147;-84
2023/08/22 01:20:22;;;;;;;5.13;3.37;;;14.00;99.90;13.30;100894;;;;573319;246;24141;-79
2023/08/22 01:22:50;;;;;;;9.77;3.50;;;14.00;99.90;13.30;100887;;;;572350;247;24081;-80
2023/08/22 01:25:18;;;;;;;9.13;4.10;;;13.90;99.90;13.30;100885;;;;562463;251;24101;-86
2023/08/22 01:27:55;;;;;;;7.20;4.10;;;13.90;99.90;13.30;100889;;;;581763;246;24047;-83
2023/08/22 01:30:23;;;;;;;13.37;4.37;;;13.90;99.90;13.30;100887;;;;571760;246;24068;-81
2023/08/22 01:32:51;;;;;;;9.10;3.73;;;13.90;99.90;13.30;100889;;;;573095;247;24073;-83
2023/08/22 01:35:22;;;;;;;6.10;3.27;;;13.90;99.90;13.30;100891;;;;573754;246;24058;-85
2023/08/22 01:37:47;;;;;;;8.70;3.67;;;13.90;99.90;13.30;100895;;;;562522;248;24167;-80
2023/08/22 01:40:15;;;;;;;11.47;3.67;;;13.90;99.90;13.30;100900;;;;562255;251;24065;-81
2023/08/22 01:42:43;;;;;;;5.53;3.30;;;13.90;99.90;13.30;100903;;;;572533;247;24080;-80
2023/08/22 01:45:12;;;;;;;9.83;3.77;;;14.00;99.90;13.40;100898;;;;563602;251;24085;-82
2023/08/22 01:47:40;;;;;;;6.97;3.50;;;14.00;99.90;13.50;100907;;;;582892;244;24055;-80
2023/08/22 01:50:08;;;;;;;16.70;4.50;;;14.10;99.90;13.60;100904;;;;573403;246;24072;-80
2023/08/22 01:52:36;;;;;;;13.03;4.00;;;14.10;99.90;13.60;100907;;;;563355;249;24085;-81
2023/08/22 01:55:05;;;;;;;9.50;4.53;;;14.30;99.90;13.60;100904;;;;582936;246;24034;-82
2023/08/22 01:57:32;;;;;;;9.27;4.80;;;14.20;99.90;13.70;100905;;;;571940;247;24154;-82
2023/08/22 02:00:00;;;;;;;13.17;5.47;;;14.20;99.90;13.70;100898;;;;572198;249;24169;-81
2023/08/22 02:02:28;;;;;;;11.93;5.37;;;14.30;99.90;13.70;100904;;;;573251;247;24059;-80
2023/08/22 02:04:56;;;;;;;12.97;4.70;;;14.30;99.90;13.70;100896;;;;573486;247;24152;-80
2023/08/22 02:07:25;;;;;;;9.97;4.87;;;14.30;99.90;13.70;100901;;;;573416;247;24043;-81
2023/08/22 02:09:54;;;;;;;7.07;4.77;;;14.30;99.90;13.70;100910;;;;573130;247;24107;-82
2023/08/22 02:12:21;;;;;;;6.90;4.83;;;14.40;99.90;13.80;100902;;;;573509;247;24080;-82
2023/08/22 02:14:51;;;;;;;10.77;4.97;;;14.40;99.90;13.80;100901;;;;573335;247;24104;-80
2023/08/22 02:17:17;;;;;;;17.20;5.87;;;14.40;99.90;13.80;100899;;;;573591;247;24050;-80
2023/08/22 02:19:45;;;;;;;13.13;4.87;;;14.40;99.90;13.80;100901;;;;573588;247;24043;-78
2023/08/22 02:22:13;;;;;;;12.33;5.57;;;14.40;99.90;13.80;100893;;;;573297;246;24088;-79
2023/08/22 02:24:41;;;;;;;14.53;5.27;;;14.40;99.90;13.80;100885;;;;573469;247;24103;-79
2023/08/22 02:27:09;;;;;;;12.40;5.80;;;14.40;99.90;13.80;100890;;;;573543;247;24485;-79
2023/08/22 02:29:37;;;;;;;17.13;5.30;;;14.50;99.90;13.90;100878;;;;573587;247;24088;-79
2023/08/22 02:32:05;;;;;;;12.07;4.97;;;14.50;99.90;13.90;100880;;;;573882;247;24058;-78
2023/08/22 02:34:33;;;;;;;11.73;5.43;;;14.50;99.90;13.90;100883;;;;573427;247;24091;-80
2023/08/22 02:37:01;;;;;;;11.60;5.13;;;14.50;99.90;13.90;100885;;;;573040;245;24134;-80
2023/08/22 02:39:32;;;;;;;8.77;5.60;;;14.50;99.90;13.90;100880;;;;572767;247;24058;-80
2023/08/22 02:41:56;;;;;;;11.10;5.13;;;14.60;99.90;14.00;100883;;;;572934;247;24079;-80
2023/08/22 02:44:24;;;;;;;10.13;5.43;;;14.50;99.90;13.90;100875;;;;573138;247;24150;-83
2023/08/22 02:46:52;;;;;;;15.03;5.97;;;14.50;99.90;14.00;100879;;;;573362;245;24079;-80
2023/08/22 02:49:20;;;;;;;12.97;6.23;;;14.50;99.90;13.90;100864;;;;573079;247;24400;-80
2023/08/22 02:51:48;;;;;;;10.97;5.97;;;14.60;99.90;13.90;100869;;;;572961;247;24059;-80
2023/08/22 02:54:17;;;;;;;11.50;5.80;;;14.50;99.90;13.90;100877;;;;573000;247;24058;-80
2023/08/22 02:56:45;;;;;;;11.53;4.97;;;14.50;99.90;13.80;100871;;;;575021;246;24110;-84
2023/08/22 02:59:13;;;;;;;12.40;5.47;;;14.50;99.90;13.80;100861;;;;574829;246;24059;-87
2023/08/22 03:01:41;;;;;;;14.87;6.10;;;14.50;99.90;13.90;100853;;;;575064;246;24112;-86
2023/08/22 03:04:11;;;;;;;13.40;6.07;;;14.50;99.90;13.90;100854;;;;574280;246;24026;-80
2023/08/22 03:06:37;;;;;;;15.03;6.23;;;14.50;99.90;14.00;100851;;;;582127;246;24044;-79
2023/08/22 03:09:06;;;;;;;10.23;5.63;;;14.50;99.90;14.00;100853;;;;573615;246;24037;-78
2023/08/22 03:11:35;;;;;;;17.13;6.60;;;14.60;99.90;14.00;100844;;;;573473;246;24066;-79
2023/08/22 03:14:03;;;;;;;19.73;6.40;;;14.60;99.90;14.00;100851;;;;573242;247;24158;-80
2023/08/22 03:16:31;;;;;;;14.03;6.47;;;14.50;99.90;14.00;100848;;;;573258;245;24135;-80
2023/08/22 03:18:59;;;;;;;11.13;5.37;;;14.50;99.90;13.90;100848;;;;573194;247;24047;-80
2023/08/22 03:21:27;;;;;;;14.73;5.53;;;14.50;99.90;13.90;100853;;;;573071;245;24098;-80
2023/08/22 03:23:55;;;;;;;8.60;6.00;;;14.50;99.90;13.90;100864;;;;572789;245;24153;-81
2023/08/22 03:26:23;;;;;;;16.77;6.47;;;14.50;99.90;13.90;100860;;;;562948;251;24176;-80
2023/08/22 03:28:51;;;;;;;16.33;6.60;;;14.40;99.90;13.80;100855;;;;573605;247;24074;-80
2023/08/22 03:31:19;;;;;;;9.43;6.27;;;14.40;99.90;13.90;100858;;;;573797;247;24028;-84
2023/08/22 03:33:46;;;;;;;12.87;6.53;;;14.40;99.90;13.90;100856;;;;573606;247;24035;-82
2023/08/22 03:36:14;;;;;;;13.97;5.37;;;14.40;99.90;13.80;100857;;;;573098;247;24151;-80
2023/08/22 03:38:42;;;;;;;9.73;5.83;;;14.40;99.90;13.80;100849;;;;573323;247;24047;-81
2023/08/22 03:41:10;;;;;;;15.37;6.83;;;14.40;99.90;13.80;100851;;;;573513;247;24055;-83
2023/08/22 03:43:38;;;;;;;12.93;6.73;;;14.40;99.90;13.80;100851;;;;573333;247;24175;-80
2023/08/22 03:46:06;;;;;;;10.00;6.47;;;14.40;99.90;13.90;100847;;;;573491;247;24086;-87
2023/08/22 03:48:34;;;;;;;12.10;6.87;;;14.40;99.90;13.80;100844;;;;573874;247;24038;-85
2023/08/22 03:51:07;;;;;;;13.10;6.23;;;14.40;99.90;13.80;100847;;;;573735;247;24023;-84
2023/08/22 03:53:35;;;;;;;12.17;6.13;;;14.40;99.90;13.90;100851;;;;582152;247;24065;-83
2023/08/22 03:56:03;;;;;;;12.33;6.30;;;14.40;99.90;13.90;100850;;;;573518;247;24032;-80
2023/08/22 03:58:33;;;;;;;14.83;5.83;;;14.40;99.90;13.90;100859;;;;574139;245;24135;-80
2023/08/22 04:01:04;;;;;;;15.10;6.87;;;14.40;99.90;13.90;100854;;;;573812;244;24068;-85
2023/08/22 04:03:29;;;;;;;10.17;7.50;;;14.50;99.90;13.90;100856;;;;573780;247;24078;-87
2023/08/22 04:06:03;;;;;;;13.37;7.57;;;14.50;99.90;14.00;100848;;;;583012;240;24035;-86
2023/08/22 04:08:28;;;;;;;9.50;5.70;;;14.50;99.90;14.00;100855;;;;583760;245;24122;-85
2023/08/22 04:10:59;;;;;;;9.30;6.17;;;14.50;99.90;14.00;100856;;;;574715;246;24043;-82
2023/08/22 04:13:24;;;;;;;15.23;6.47;;;14.50;99.90;14.00;100869;;;;582831;240;24098;-83
2023/08/22 04:15:52;;;;;;;22.00;10.80;;;14.60;99.90;14.10;100863;;;;569663;241;45947;-87
2023/08/22 04:18:23;;;;;;;13.20;7.93;;;14.60;99.90;14.10;100866;;;;574064;246;24044;-83
2023/08/22 04:20:48;;;;;;;14.80;6.53;;;14.70;99.90;14.20;100861;;;;582773;240;24043;-86
2023/08/22 04:23:16;;;;;;;10.13;7.23;;;14.70;99.90;14.20;100865;;;;574202;246;24069;-85
2023/08/22 04:25:46;;;;;;;17.43;6.47;;;14.80;99.90;14.30;100867;;;;574260;247;24112;-87
2023/08/22 04:28:13;;;;;;;9.60;6.40;;;14.80;99.90;14.40;100870;;;;582690;245;24113;-85
2023/08/22 04:30:42;;;;;;;10.30;6.80;;;14.90;99.90;14.50;100873;;;;574559;245;24057;-81
2023/08/22 04:33:08;;;;;;;9.40;6.67;;;15.00;99.90;14.60;100868;;;;575033;245;24090;-82
2023/08/22 04:35:37;;;;;;;8.57;6.37;;;15.10;99.90;14.70;100869;;;;575295;245;24050;-83
2023/08/22 04:38:04;;;;;;;13.70;6.60;;;15.20;99.90;14.90;100871;;;;573748;245;24077;-82
2023/08/22 04:40:32;;;;;;;14.77;7.07;;;15.40;99.90;15.60;100864;;;;573511;246;24052;-81
2023/08/22 04:43:00;;;;;;;14.17;7.10;;;15.90;99.90;16.60;100871;;;;573181;247;24105;-80
2023/08/22 04:45:28;;;;;;;11.80;7.60;;;16.90;99.90;17.40;100876;;;;573079;245;24099;-81
2023/08/22 04:47:57;;;;;;;9.53;7.90;;;18.80;99.90;18.30;100875;;;;572835;247;24034;-81
2023/08/22 04:50:25;;;;;;;10.53;7.23;;;18.70;99.90;18.90;100884;;;;573000;247;23081;-81
2023/08/22 04:52:55;;;;;;;8.57;7.20;;;19.50;99.90;19.00;100887;;;;572995;240;24029;-80
2023/08/22 04:55:23;;;;;;;8.90;5.70;;;19.70;99.90;19.70;100887;;;;573073;247;24037;-80
2023/08/22 04:57:51;;;;;;;10.17;5.47;;;20.40;99.90;20.70;100889;;;;572856;247;23067;-80
2023/08/22 05:00:19;;;;;;;7.57;4.90;;;21.40;99.90;21.60;100896;;;;572777;245;23090;-79
2023/08/22 05:02:47;;;;;;;12.80;3.80;;;22.30;99.90;22.50;100902;;;;573253;245;24064;-81
2023/08/22 05:05:15;;;;;;;3.93;3.53;;;24.10;99.90;23.40;100901;;;;573216;245;24025;-80
2023/08/22 05:07:44;;;;;;;4.07;3.17;;;24.80;99.90;24.10;100892;;;;573169;247;24056;-80
2023/08/22 05:10:12;;;;;;;5.23;3.27;;;24.80;99.90;24.50;100882;;;;572805;247;24044;-81
2023/08/22 05:12:40;;;;;;;3.00;2.80;;;25.30;99.90;25.00;100883;;;;573083;247;23137;-88
2023/08/22 05:15:12;;;;;;;4.87;2.80;;;25.70;99.90;25.70;100878;;;;573456;245;24043;-87
2023/08/22 05:17:37;;;;;;;6.77;2.80;;;26.30;99.90;26.40;100876;;;;583385;246;23043;-80
2023/08/22 05:20:09;;;;;;;4.93;3.30;;;27.00;99.90;27.00;100888;;;;574524;246;23049;-83
2023/08/22 05:22:34;;;;;;;4.72;2.75;;;27.50;99.90;27.20;100890;;;;573828;246;24094;-82
2023/08/22 05:25:04;;;;;;;10.38;3.60;;;27.80;99.90;27.70;100895;;;;574479;246;23084;-81
2023/08/22 05:27:30;;;;;;;3.37;2.50;;;28.20;99.90;28.00;100882;;;;573807;246;23046;-80
2023/08/22 05:29:58;;;;;;;3.03;2.70;;;28.60;99.90;28.10;100884;;;;573372;246;24108;-81
2023/08/22 05:32:26;;;;;;;6.03;2.85;;;28.70;99.90;28.10;100891;;;;573959;246;23039;-81
2023/08/22 05:34:55;;;;;;;2.58;2.37;;;28.70;99.90;28.20;100895;;;;574125;245;23054;-81
2023/08/22 05:37:23;;;;;;;3.97;2.83;;;28.80;99.90;28.80;100898;;;;573997;245;23104;-85
2023/08/22 05:39:51;;;;;;;5.12;2.97;;;29.30;99.90;29.50;100898;;;;573282;247;23111;-80
2023/08/22 05:42:19;;;;;;;14.02;3.65;;;30.00;98.30;29.90;100898;;;;568174;245;35057;-80
2023/08/22 05:44:47;;;;;;;5.47;2.40;;;30.40;96.40;29.70;100883;;;;573478;245;23146;-81
2023/08/22 05:47:14;;;;;;;3.67;2.75;;;30.30;95.20;29.80;100887;;;;573473;245;24073;-83
2023/08/22 05:49:43;;;;;;;4.95;2.67;;;30.30;94.60;30.00;100901;;;;573539;247;23053;-85
2023/08/22 05:52:10;;;;;;;7.70;2.87;;;30.50;93.70;30.50;100904;;;;573547;247;23097;-81
2023/08/22 05:54:39;;;;;;;2.95;2.30;;;31.70;91.50;31.40;100903;;;;573889;247;23093;-80
2023/08/22 05:57:08;;;;;;;2.47;2.30;;;32.50;90.00;32.30;100900;;;;573402;245;23173;-84
2023/08/22 05:59:36;;;;;;;3.80;2.22;;;33.70;86.00;33.60;100908;;;;572981;247;24215;-80
2023/08/22 06:02:04;;;;;;;3.28;2.70;;;33.60;85.90;34.80;100906;;;;572633;247;23090;-80
2023/08/22 06:04:32;;;;;;;8.35;2.90;;;34.90;81.10;35.40;100914;;;;573351;247;23101;-81
2023/08/22 06:07:00;;;;;;;7.40;3.35;;;35.80;76.30;35.50;100914;;;;573315;245;23046;-80
2023/08/22 06:09:28;;;;;;;13.57;5.68;;;36.00;72.80;34.50;100910;;;;573400;247;23077;-81
2023/08/22 06:11:56;;;;;;;7.30;3.62;;;35.30;70.50;33.10;100920;;;;573165;247;24106;-82
2023/08/22 06:14:24;;;;;;;3.55;2.30;;;34.10;71.60;32.30;100920;;;;573370;245;23046;-87
2023/08/22 06:16:52;;;;;;;5.20;2.12;;;33.10;73.30;31.70;100922;;;;573487;246;23127;-85
2023/08/22 06:19:20;;;;;;;4.28;2.60;;;32.30;75.60;32.70;100911;;;;573218;247;23128;-85
2023/08/22 06:21:51;;;;;;;4.97;2.55;;;32.80;76.50;34.00;100910;;;;572981;247;23073;-81
2023/08/22 06:24:16;;;;;;;4.22;2.67;;;35.40;70.50;35.60;100914;;;;572363;247;23054;-80
2023/08/22 06:26:47;;;;;;;2.40;2.20;;;36.80;67.70;36.90;100917;;;;581530;247;23069;-81
2023/08/22 06:29:16;;;;;;;5.60;2.80;;;37.90;63.30;37.90;100909;;;;581463;241;24095;-82
2023/08/22 06:31:42;;;;;;;7.12;2.50;;;37.80;63.20;38.80;100912;;;;582766;244;24116;-82
2023/08/22 06:34:12;;;;;;;31.65;10.65;;;38.80;59.70;38.60;100919;;;;574533;244;23064;-81
2023/08/22 06:36:37;;;;;;;9.38;5.20;;;38.90;58.30;38.90;100909;;;;583011;246;24317;-82
2023/08/22 06:39:06;;;;;;;7.32;3.08;;;39.20;57.50;39.60;100904;;;;574007;244;23058;-83
2023/08/22 06:41:35;;;;;;;18.25;6.32;;;39.70;56.60;40.40;100906;;;;573663;246;24058;-86
2023/08/22 06:44:07;;;;;;;13.57;5.43;;;40.40;55.40;41.60;100899;;;;573410;246;23049;-84
2023/08/22 06:46:29;;;;;;;62.47;21.50;;;41.50;53.90;41.60;100909;;;;573761;246;23106;-84
2023/08/22 06:48:57;;;;;;;67.90;24.58;;;41.80;52.10;41.10;100906;;;;574630;244;23067;-85
2023/08/22 06:51:25;;;;;;;19.42;6.53;;;41.60;51.40;40.20;100916;;;;573886;247;23042;-83
2023/08/22 06:53:53;;;;;;;4.78;2.10;;;41.00;51.20;38.70;100923;;;;573975;247;23051;-86
2023/08/22 06:56:24;;;;;;;3.72;2.15;;;39.80;51.90;37.20;100920;;;;573355;247;23106;-81
2023/08/22 06:58:49;;;;;;;15.40;2.87;;;38.30;53.40;35.30;100915;;;;573616;240;23147;-79
2023/08/22 07:01:17;;;;;;;13.40;3.05;;;36.50;55.20;33.90;100917;;;;583705;242;23137;-81
2023/08/22 07:03:45;;;;;;;18.87;2.87;;;34.90;58.00;33.40;100915;;;;584575;242;23079;-78
2023/08/22 07:06:13;;;;;;;61.95;7.22;;;34.00;60.20;33.20;100910;;;;584681;242;23063;-83
2023/08/22 07:08:40;;;;;;;29.17;5.00;;;33.60;61.60;33.10;100907;;;;593311;242;23111;-77
2023/08/22 07:11:08;;;;;;;6.62;2.58;;;33.40;62.20;33.20;100893;;;;584332;242;23095;-80
2023/08/22 07:13:36;;;;;;;7.40;2.42;;;33.40;61.70;33.70;100851;;;;584470;242;23060;-82
2023/08/22 07:16:04;;;;;;;3.97;2.10;;;33.80;61.30;33.70;100802;;;;584434;242;23110;-83
2023/08/22 07:18:32;;;;;;;6.10;2.28;;;33.90;60.10;32.80;100805;;;;584594;242;23075;-82
2023/08/22 07:21:03;;;;;;;6.75;3.08;;;33.40;60.80;31.90;100811;;;;584707;242;24124;-84
2023/08/22 07:23:31;;;;;;;5.45;4.57;;;32.70;62.30;31.20;100808;;;;592982;239;23140;-81
2023/08/22 07:26:02;;;;;;;15.38;3.55;;;32.10;63.10;30.80;100795;;;;584247;242;23079;-84
2023/08/22 07:28:28;;;;;;;10.57;4.30;;;31.00;66.60;30.40;100790;;;;584165;242;23110;-84
2023/08/22 07:30:56;;;;;;;15.65;2.22;;;30.60;67.40;30.00;100795;;;;583809;242;24074;-82
2023/08/22 07:33:26;;;;;;;5.53;1.50;;;30.60;67.30;29.60;100797;;;;584629;242;23131;-81
2023/08/22 07:35:54;;;;;;;3.92;2.25;;;30.20;67.30;29.20;100824;;;;584703;242;23122;-80
2023/08/22 07:38:22;;;;;;;2.40;1.65;;;29.50;70.50;29.00;100820;;;;584029;242;23070;-78
2023/08/22 07:40:51;;;;;;;3.78;2.35;;;29.30;72.80;28.80;100843;;;;576101;246;23232;-80
2023/08/22 07:43:19;;;;;;;8.63;4.47;;;29.20;72.10;28.70;100874;;;;576792;245;24112;-78
2023/08/22 07:45:47;;;;;;;5.00;1.85;;;29.10;73.00;28.50;100904;;;;576453;245;23098;-84
2023/08/22 07:48:15;;;;;;;9.25;2.45;;;28.90;73.90;28.30;100918;;;;576115;246;23164;-81
2023/08/22 07:50:42;;;;;;;15.38;2.85;;;28.70;74.90;28.20;100925;;;;576250;245;23113;-80
2023/08/22 07:53:14;;;;;;;13.70;2.70;;;28.60;75.50;28.50;100918;;;;575978;246;24158;-79
2023/08/22 07:55:38;;;;;;;10.13;1.77;;;28.80;75.80;28.90;100909;;;;574932;246;23153;-78
2023/08/22 07:58:07;;;;;;;2.28;1.90;;;29.50;73.40;29.30;100904;;;;575050;246;23196;-79
2023/08/22 08:00:35;;;;;;;36.90;5.15;;;29.50;73.40;29.20;100897;;;;574964;246;23103;-76
2023/08/22 08:03:03;;;;;;;14.52;2.58;;;29.60;73.00;29.00;100885;;;;574985;246;23110;-77
2023/08/22 08:05:31;;;;;;;7.55;2.00;;;29.40;73.40;29.00;100890;;;;579400;246;35482;-78
2023/08/22 08:07:59;;;;;;;7.57;1.87;;;29.30;73.50;29.70;100889;;;;574638;247;23213;-77
2023/08/22 08:10:27;;;;;;;8.57;1.80;;;29.70;74.20;31.00;100902;;;;574607;247;23113;-77
2023/08/22 08:12:54;;;;;;;14.00;2.33;;;31.00;71.00;31.90;100893;;;;574675;247;24086;-78
2023/08/22 08:15:26;;;;;;;7.05;2.05;;;32.00;69.20;33.20;100879;;;;574042;247;23108;-77
2023/08/22 08:17:50;;;;;;;14.15;2.08;;;33.20;65.80;33.50;100877;;;;582907;246;23172;-80
2023/08/22 08:20:18;;;;;;;16.85;2.25;;;33.90;63.80;33.40;100882;;;;574008;247;23111;-78
2023/08/22 08:22:46;;;;;;;8.15;2.00;;;33.90;62.90;33.30;100884;;;;574424;247;23095;-77
2023/08/22 08:25:14;;;;;;;8.95;1.40;;;33.90;61.70;33.90;100887;;;;574122;243;23092;-81
2023/08/22 08:27:43;;;;;;;7.53;1.95;;;34.30;60.80;34.20;100882;;;;573834;247;23104;-78
2023/08/22 08:30:10;;;;;;;24.30;4.15;;;34.60;59.60;34.30;100900;;;;573927;247;23107;-78
2023/08/22 08:32:41;;;;;;;4.12;1.92;;;34.80;60.20;34.80;100900;;;;573771;247;23093;-83
2023/08/22 08:35:09;;;;;;;8.20;2.25;;;35.20;58.60;34.80;100913;;;;574552;247;23128;-86
2023/08/22 08:37:36;;;;;;;10.05;2.03;;;35.40;58.80;34.30;100909;;;;574040;247;23089;-81
2023/08/22 08:40:07;;;;;;;11.63;1.87;;;35.10;58.50;33.40;100901;;;;574075;247;23111;-80
2023/08/22 08:42:36;;;;;;;33.60;3.25;;;34.40;58.10;32.70;100911;;;;574168;247;23213;-77
2023/08/22 08:45:03;;;;;;;8.65;2.58;;;33.60;58.90;32.10;100930;;;;573446;247;23189;-81
2023/08/22 08:47:31;;;;;;;6.12;1.85;;;32.90;59.30;31.40;100928;;;;582078;246;24182;-78
2023/08/22 08:49:59;;;;;;;3.05;1.27;;;32.30;59.70;30.80;100917;;;;582320;246;23154;-79
2023/08/22 08:52:29;;;;;;;3.80;1.17;;;31.50;61.00;30.20;100923;;;;582545;246;23127;-79
2023/08/22 08:54:58;;;;;;;7.65;1.67;;;30.90;62.90;29.70;100913;;;;583986;242;23141;-80
2023/08/22 08:57:22;;;;;;;19.77;2.50;;;30.30;64.50;29.30;100898;;;;574179;246;23098;-77
2023/08/22 08:59:51;;;;;;;9.25;3.30;;;29.30;67.00;28.80;100903;;;;574832;246;23154;-78
2023/08/22 09:02:19;;;;;;;3.58;1.40;;;29.30;67.00;28.40;100906;;;;574822;243;23084;-79
2023/08/22 09:04:49;;;;;;;2.42;1.52;;;28.90;67.10;28.00;100906;;;;574142;246;24151;-82
2023/08/22 09:07:19;;;;;;;9.25;1.90;;;28.00;68.20;27.60;100904;;;;574167;246;24161;-78
2023/08/22 09:09:43;;;;;;;11.73;1.70;;;27.90;68.10;27.20;100900;;;;574242;246;24119;-77
2023/08/22 09:12:13;;;;;;;3.08;1.50;;;27.60;68.90;26.90;100890;;;;574070;247;23119;-77
2023/08/22 09:14:49;;;;;;;5.63;1.40;;;27.30;69.90;26.70;100900;;;;573792;247;23096;-79
2023/08/22 09:17:19;;;;;;;12.40;2.27;;;27.10;71.40;26.60;100903;;;;582209;246;23114;-77
2023/08/22 09:19:44;;;;;;;11.10;2.43;;;27.00;72.20;26.60;100915;;;;572094;247;24125;-78
2023/08/22 09:22:12;;;;;;;10.67;1.73;;;26.90;73.20;26.50;100917;;;;573975;247;23150;-77
2023/08/22 09:24:53;;;;;;;7.67;2.43;;;26.90;73.90;26.50;100911;;;;574018;247;24150;-77
2023/08/22 09:27:18;;;;;;;7.37;2.70;;;26.80;73.80;26.60;100909;;;;574004;247;23116;-82
2023/08/22 09:29:46;;;;;;;27.53;2.77;;;27.00;74.30;26.70;100914;;;;573392;247;23177;-77
2023/08/22 09:32:14;;;;;;;5.60;2.03;;;27.10;74.50;26.60;100907;;;;573753;247;24079;-78
2023/08/22 09:34:41;;;;;;;5.60;1.80;;;27.10;74.50;26.60;100900;;;;573939;247;23143;-79
2023/08/22 09:37:09;;;;;;;21.03;3.83;;;27.00;74.00;26.50;100913;;;;572773;247;23172;-77
2023/08/22 09:39:38;;;;;;;9.00;1.45;;;27.00;74.40;26.50;100903;;;;574436;247;24091;-78
2023/08/22 09:42:06;;;;;;;25.47;3.10;;;26.80;73.80;26.40;100896;;;;574716;247;24126;-80
2023/08/22 09:44:35;;;;;;;5.70;2.03;;;26.80;73.80;26.40;100892;;;;574373;247;24101;-85
2023/08/22 09:47:03;;;;;;;19.33;2.43;;;26.70;74.30;26.30;100897;;;;573500;247;23143;-80
2023/08/22 09:49:31;;;;;;;3.50;1.37;;;26.70;74.30;26.10;100896;;;;582553;242;23148;-80
2023/08/22 09:52:03;;;;;;;5.17;1.70;;;26.50;73.90;26.40;100896;;;;573597;247;23094;-84
2023/08/22 09:54:27;;;;;;;2.87;1.43;;;26.70;74.60;27.30;100895;;;;581857;246;24163;-85
2023/08/22 09:56:55;;;;;;;2.97;1.73;;;27.50;74.30;28.20;100879;;;;582399;243;23121;-86
2023/08/22 09:59:23;;;;;;;4.75;1.50;;;28.50;71.20;28.90;100878;;;;573335;247;24161;-86
2023/08/22 10:01:51;;;;;;;11.23;2.00;;;29.30;68.30;29.20;100873;;;;573840;247;23107;-86
2023/08/22 10:04:22;;;;;;;9.27;1.75;;;29.70;67.60;29.80;100874;;;;574005;245;23109;-83
2023/08/22 10:06:47;;;;;;;9.88;2.65;;;30.40;67.00;30.20;100870;;;;575451;246;23166;-86
2023/08/22 10:09:17;;;;;;;8.65;1.70;;;30.90;65.60;30.60;100865;;;;575024;246;23131;-81
2023/08/22 10:11:51;;;;;;;4.25;1.50;;;31.20;64.30;30.90;100862;;;;574277;246;23143;-79
2023/08/22 10:14:34;;;;;;;2.85;1.62;;;31.60;63.40;31.30;100865;;;;583247;246;24122;-79
2023/08/22 10:17:02;;;;;;;3.22;1.77;;;31.90;64.20;31.30;100862;;;;572258;246;23106;-82
2023/08/22 10:19:30;;;;;;;1.75;1.48;;;32.00;63.20;31.10;100851;;;;574181;246;23209;-79
2023/08/22 10:22:07;;;;;;;10.70;1.87;;;31.90;63.20;30.70;100853;;;;574077;246;23224;-82
2023/08/22 10:24:39;;;;;;;3.37;1.48;;;31.10;63.00;30.40;100860;;;;573200;247;23105;-86
2023/08/22 10:27:09;;;;;;;3.78;1.60;;;31.10;62.60;30.30;100862;;;;573737;247;23155;-84
2023/08/22 10:29:37;;;;;;;5.32;1.83;;;30.90;62.60;30.10;100860;;;;571799;247;23162;-82
2023/08/22 10:32:05;;;;;;;3.03;1.60;;;30.80;61.40;29.80;100855;;;;582182;246;23138;-81
2023/08/22 10:34:40;;;;;;;2.62;1.87;;;30.30;63.30;29.70;100849;;;;573887;247;23099;-82
2023/08/22 10:37:20;;;;;;;6.62;1.90;;;30.30;63.30;29.50;100850;;;;574233;247;23107;-83
2023/08/22 10:39:48;;;;;;;7.97;1.50;;;29.90;63.70;29.30;100844;;;;582789;246;23103;-86
2023/08/22 10:42:22;;;;;;;3.65;1.30;;;29.90;63.60;29.00;100836;;;;574130;247;23137;-80
2023/08/22 10:44:59;;;;;;;5.15;1.62;;;29.60;64.50;28.60;100839;;;;573804;247;23154;-80
2023/08/22 10:47:27;;;;;;;72.75;6.20;;;29.20;64.10;28.40;100855;;;;573551;247;23172;-81
2023/08/22 10:49:55;;;;;;;33.33;3.35;;;28.90;65.90;28.10;100845;;;;573762;247;23100;-78
2023/08/22 10:52:26;;;;;;;7.85;1.70;;;28.70;67.00;28.00;100862;;;;573599;247;23103;-87
2023/08/22 10:55:00;;;;;;;8.85;1.60;;;28.40;68.40;27.80;100854;;;;572575;247;23175;-86
2023/08/22 10:57:27;;;;;;;3.47;1.25;;;28.20;67.80;27.60;100852;;;;573580;247;24386;-82
2023/08/22 10:59:59;;;;;;;3.42;1.65;;;27.80;68.60;27.30;100838;;;;574300;247;23176;-82
2023/08/22 11:02:36;;;;;;;5.53;1.30;;;27.70;68.50;27.10;100831;;;;574360;246;23111;-86
2023/08/22 11:05:03;;;;;;;14.20;3.17;;;27.50;68.70;27.00;100834;;;;574405;246;23088;-82
2023/08/22 11:07:31;;;;;;;5.73;1.90;;;27.40;69.20;26.80;100830;;;;583623;246;24135;-87
2023/08/22 11:09:59;;;;;;;1.37;1.20;;;27.20;69.60;26.50;100848;;;;574549;247;23104;-86
2023/08/22 11:12:27;;;;;;;4.00;1.40;;;27.00;70.60;26.40;100835;;;;574722;247;23123;-83
2023/08/22 11:14:57;;;;;;;2.20;1.70;;;26.80;71.40;26.30;100837;;;;583147;246;23153;-82